sensor_id;sensor_type;location;lat;lon;timestamp;P1;durP1;ratioP1;P2;durP2;ratioP2
17283;SDS011;8760;52.248;20.952;2023-07-20T00:00:30;3.33;;;2.47;;
17283;SDS011;8760;52.248;20.952;2023-07-20T00:03:09;6.38;;;2.20;;
17283;SDS011;8760;52.248;20.952;2023-07-20T00:05:37;4.70;;;2.35;;
17283;SDS011;8760;52.248;20.952;2023-07-20T00:08:05;5.65;;;2.40;;
17283;SDS011;8760;52.248;20.952;2023-07-20T00:10:31;4.10;;;2.30;;
17283;SDS011;8760;52.248;20.952;2023-07-20T00:13:00;5.00;;;2.50;;
17283;SDS011;8760;52.248;20.952;2023-07-20T00:15:26;3.20;;;2.42;;
17283;SDS011;8760;52.248;20.952;2023-07-20T00:17:53;4.60;;;2.30;;
17283;SDS011;8760;52.248;20.952;2023-07-20T00:20:21;5.10;;;2.28;;
17283;SDS011;8760;52.248;20.952;2023-07-20T00:22:49;4.07;;;2.70;;
17283;SDS011;8760;52.248;20.952;2023-07-20T00:25:17;5.13;;;2.47;;
17283;SDS011;8760;52.248;20.952;2023-07-20T00:27:44;3.72;;;2.22;;
17283;SDS011;8760;52.248;20.952;2023-07-20T00:30:12;5.63;;;2.33;;
17283;SDS011;8760;52.248;20.952;2023-07-20T00:32:39;3.05;;;2.35;;
17283;SDS011;8760;52.248;20.952;2023-07-20T00:35:08;5.55;;;2.45;;
17283;SDS011;8760;52.248;20.952;2023-07-20T00:37:35;5.35;;;2.58;;
17283;SDS011;8760;52.248;20.952;2023-07-20T00:40:03;3.83;;;2.47;;
17283;SDS011;8760;52.248;20.952;2023-07-20T00:42:32;3.72;;;2.45;;
17283;SDS011;8760;52.248;20.952;2023-07-20T00:44:59;4.00;;;2.30;;
17283;SDS011;8760;52.248;20.952;2023-07-20T00:47:27;3.90;;;2.35;;
17283;SDS011;8760;52.248;20.952;2023-07-20T00:49:54;5.40;;;2.40;;
17283;SDS011;8760;52.248;20.952;2023-07-20T00:52:21;2.97;;;2.40;;
17283;SDS011;8760;52.248;20.952;2023-07-20T00:54:51;3.05;;;2.60;;
17283;SDS011;8760;52.248;20.952;2023-07-20T00:57:21;7.03;;;2.63;;
17283;SDS011;8760;52.248;20.952;2023-07-20T00:59:50;4.35;;;2.63;;
17283;SDS011;8760;52.248;20.952;2023-07-20T01:02:17;7.80;;;2.40;;
17283;SDS011;8760;52.248;20.952;2023-07-20T01:04:45;2.97;;;2.30;;
17283;SDS011;8760;52.248;20.952;2023-07-20T01:07:14;3.80;;;2.60;;
17283;SDS011;8760;52.248;20.952;2023-07-20T01:09:51;3.70;;;2.40;;
17283;SDS011;8760;52.248;20.952;2023-07-20T01:12:26;2.95;;;2.40;;
17283;SDS011;8760;52.248;20.952;2023-07-20T01:14:58;5.25;;;2.30;;
17283;SDS011;8760;52.248;20.952;2023-07-20T01:17:25;5.45;;;2.60;;
17283;SDS011;8760;52.248;20.952;2023-07-20T01:19:53;4.85;;;2.63;;
17283;SDS011;8760;52.248;20.952;2023-07-20T01:22:23;4.78;;;2.80;;
17283;SDS011;8760;52.248;20.952;2023-07-20T01:25:11;5.38;;;2.38;;
17283;SDS011;8760;52.248;20.952;2023-07-20T01:28:00;3.65;;;2.50;;
17283;SDS011;8760;52.248;20.952;2023-07-20T01:30:52;3.78;;;2.20;;
17283;SDS011;8760;52.248;20.952;2023-07-20T01:33:27;3.10;;;2.63;;
17283;SDS011;8760;52.248;20.952;2023-07-20T01:35:57;6.32;;;2.50;;
17283;SDS011;8760;52.248;20.952;2023-07-20T01:38:25;2.40;;;2.13;;
17283;SDS011;8760;52.248;20.952;2023-07-20T01:40:52;3.45;;;2.47;;
17283;SDS011;8760;52.248;20.952;2023-07-20T01:43:19;3.63;;;2.45;;
17283;SDS011;8760;52.248;20.952;2023-07-20T01:45:47;2.83;;;2.30;;
17283;SDS011;8760;52.248;20.952;2023-07-20T01:48:13;3.95;;;2.58;;
17283;SDS011;8760;52.248;20.952;2023-07-20T01:50:42;7.18;;;2.63;;
17283;SDS011;8760;52.248;20.952;2023-07-20T01:53:09;6.72;;;3.13;;
17283;SDS011;8760;52.248;20.952;2023-07-20T01:55:36;4.03;;;2.50;;
17283;SDS011;8760;52.248;20.952;2023-07-20T01:58:03;4.75;;;2.80;;
17283;SDS011;8760;52.248;20.952;2023-07-20T02:00:31;6.28;;;3.00;;
17283;SDS011;8760;52.248;20.952;2023-07-20T02:02:57;5.90;;;2.90;;
17283;SDS011;8760;52.248;20.952;2023-07-20T02:05:24;4.45;;;2.80;;
17283;SDS011;8760;52.248;20.952;2023-07-20T02:07:53;3.25;;;2.80;;
17283;SDS011;8760;52.248;20.952;2023-07-20T02:10:19;6.38;;;3.03;;
17283;SDS011;8760;52.248;20.952;2023-07-20T02:12:46;3.70;;;2.45;;
17283;SDS011;8760;52.248;20.952;2023-07-20T02:15:14;5.60;;;2.83;;
17283;SDS011;8760;52.248;20.952;2023-07-20T02:17:41;3.13;;;2.45;;
17283;SDS011;8760;52.248;20.952;2023-07-20T02:20:08;3.88;;;2.80;;
17283;SDS011;8760;52.248;20.952;2023-07-20T02:22:36;6.05;;;2.90;;
17283;SDS011;8760;52.248;20.952;2023-07-20T02:25:05;4.35;;;2.70;;
17283;SDS011;8760;52.248;20.952;2023-07-20T02:27:32;8.25;;;3.20;;
17283;SDS011;8760;52.248;20.952;2023-07-20T02:29:59;4.15;;;2.90;;
17283;SDS011;8760;52.248;20.952;2023-07-20T02:32:27;9.57;;;3.80;;
17283;SDS011;8760;52.248;20.952;2023-07-20T02:34:54;4.97;;;3.35;;
17283;SDS011;8760;52.248;20.952;2023-07-20T02:37:21;5.22;;;3.47;;
17283;SDS011;8760;52.248;20.952;2023-07-20T02:39:48;4.78;;;4.07;;
17283;SDS011;8760;52.248;20.952;2023-07-20T02:42:16;7.53;;;5.40;;
17283;SDS011;8760;52.248;20.952;2023-07-20T02:44:44;7.72;;;5.65;;
17283;SDS011;8760;52.248;20.952;2023-07-20T02:47:11;10.55;;;6.10;;
17283;SDS011;8760;52.248;20.952;2023-07-20T02:49:38;11.15;;;5.97;;
17283;SDS011;8760;52.248;20.952;2023-07-20T02:52:05;8.63;;;6.35;;
17283;SDS011;8760;52.248;20.952;2023-07-20T02:54:32;8.25;;;5.57;;
17283;SDS011;8760;52.248;20.952;2023-07-20T02:56:59;7.25;;;5.88;;
17283;SDS011;8760;52.248;20.952;2023-07-20T02:59:27;11.15;;;5.97;;
17283;SDS011;8760;52.248;20.952;2023-07-20T03:01:54;8.23;;;5.70;;
17283;SDS011;8760;52.248;20.952;2023-07-20T03:04:22;9.30;;;5.68;;
17283;SDS011;8760;52.248;20.952;2023-07-20T03:06:50;10.27;;;5.88;;
17283;SDS011;8760;52.248;20.952;2023-07-20T03:09:16;8.10;;;5.82;;
17283;SDS011;8760;52.248;20.952;2023-07-20T03:11:43;7.80;;;5.80;;
17283;SDS011;8760;52.248;20.952;2023-07-20T03:14:10;9.68;;;5.85;;
17283;SDS011;8760;52.248;20.952;2023-07-20T03:16:39;7.28;;;5.32;;
17283;SDS011;8760;52.248;20.952;2023-07-20T03:19:06;5.85;;;5.00;;
17283;SDS011;8760;52.248;20.952;2023-07-20T03:21:32;8.10;;;4.72;;
17283;SDS011;8760;52.248;20.952;2023-07-20T03:23:59;6.00;;;4.78;;
17283;SDS011;8760;52.248;20.952;2023-07-20T03:26:26;4.75;;;4.25;;
17283;SDS011;8760;52.248;20.952;2023-07-20T03:28:53;8.60;;;4.47;;
17283;SDS011;8760;52.248;20.952;2023-07-20T03:31:20;6.63;;;4.20;;
17283;SDS011;8760;52.248;20.952;2023-07-20T03:33:48;7.82;;;4.07;;
17283;SDS011;8760;52.248;20.952;2023-07-20T03:36:15;5.57;;;3.60;;
17283;SDS011;8760;52.248;20.952;2023-07-20T03:38:42;4.40;;;3.53;;
17283;SDS011;8760;52.248;20.952;2023-07-20T03:41:09;6.00;;;4.10;;
17283;SDS011;8760;52.248;20.952;2023-07-20T03:43:37;6.28;;;3.65;;
17283;SDS011;8760;52.248;20.952;2023-07-20T03:46:04;7.43;;;4.15;;
17283;SDS011;8760;52.248;20.952;2023-07-20T03:48:32;7.45;;;4.20;;
17283;SDS011;8760;52.248;20.952;2023-07-20T03:51:00;6.40;;;4.45;;
17283;SDS011;8760;52.248;20.952;2023-07-20T03:53:27;8.65;;;6.18;;
17283;SDS011;8760;52.248;20.952;2023-07-20T03:55:54;14.18;;;7.38;;
17283;SDS011;8760;52.248;20.952;2023-07-20T03:58:21;8.48;;;6.05;;
17283;SDS011;8760;52.248;20.952;2023-07-20T04:00:48;10.88;;;5.50;;
17283;SDS011;8760;52.248;20.952;2023-07-20T04:03:16;11.65;;;5.60;;
17283;SDS011;8760;52.248;20.952;2023-07-20T04:05:43;8.30;;;5.93;;
17283;SDS011;8760;52.248;20.952;2023-07-20T04:08:12;10.77;;;6.75;;
17283;SDS011;8760;52.248;20.952;2023-07-20T04:10:39;9.02;;;5.28;;
17283;SDS011;8760;52.248;20.952;2023-07-20T04:13:09;7.90;;;5.25;;
17283;SDS011;8760;52.248;20.952;2023-07-20T04:15:35;8.32;;;4.97;;
17283;SDS011;8760;52.248;20.952;2023-07-20T04:18:02;8.60;;;5.25;;
17283;SDS011;8760;52.248;20.952;2023-07-20T04:20:29;12.30;;;4.60;;
17283;SDS011;8760;52.248;20.952;2023-07-20T04:22:56;8.60;;;5.13;;
17283;SDS011;8760;52.248;20.952;2023-07-20T04:25:24;9.20;;;5.20;;
17283;SDS011;8760;52.248;20.952;2023-07-20T04:27:51;10.13;;;5.13;;
17283;SDS011;8760;52.248;20.952;2023-07-20T04:30:18;8.90;;;4.88;;
17283;SDS011;8760;52.248;20.952;2023-07-20T04:32:47;11.70;;;5.10;;
17283;SDS011;8760;52.248;20.952;2023-07-20T04:35:16;10.30;;;5.18;;
17283;SDS011;8760;52.248;20.952;2023-07-20T04:37:44;9.80;;;4.75;;
17283;SDS011;8760;52.248;20.952;2023-07-20T04:40:12;7.97;;;4.85;;
17283;SDS011;8760;52.248;20.952;2023-07-20T04:42:40;6.20;;;4.85;;
17283;SDS011;8760;52.248;20.952;2023-07-20T04:45:08;5.22;;;4.35;;
17283;SDS011;8760;52.248;20.952;2023-07-20T04:47:35;7.43;;;4.85;;
17283;SDS011;8760;52.248;20.952;2023-07-20T04:50:02;9.50;;;5.57;;
17283;SDS011;8760;52.248;20.952;2023-07-20T04:52:29;7.25;;;5.53;;
17283;SDS011;8760;52.248;20.952;2023-07-20T04:54:56;11.00;;;5.55;;
17283;SDS011;8760;52.248;20.952;2023-07-20T04:57:23;7.75;;;5.38;;
17283;SDS011;8760;52.248;20.952;2023-07-20T04:59:52;8.70;;;5.72;;
17283;SDS011;8760;52.248;20.952;2023-07-20T05:02:19;8.55;;;4.82;;
17283;SDS011;8760;52.248;20.952;2023-07-20T05:04:46;7.03;;;5.70;;
17283;SDS011;8760;52.248;20.952;2023-07-20T05:07:13;7.53;;;5.30;;
17283;SDS011;8760;52.248;20.952;2023-07-20T05:09:40;8.07;;;6.32;;
17283;SDS011;8760;52.248;20.952;2023-07-20T05:12:07;6.53;;;5.00;;
17283;SDS011;8760;52.248;20.952;2023-07-20T05:14:33;7.88;;;5.43;;
17283;SDS011;8760;52.248;20.952;2023-07-20T05:17:02;7.47;;;5.10;;
17283;SDS011;8760;52.248;20.952;2023-07-20T05:19:29;4.93;;;4.32;;
17283;SDS011;8760;52.248;20.952;2023-07-20T05:21:56;7.32;;;5.38;;
17283;SDS011;8760;52.248;20.952;2023-07-20T05:24:23;7.57;;;5.05;;
17283;SDS011;8760;52.248;20.952;2023-07-20T05:26:49;5.38;;;4.82;;
17283;SDS011;8760;52.248;20.952;2023-07-20T05:29:16;6.03;;;5.22;;
17283;SDS011;8760;52.248;20.952;2023-07-20T05:31:43;6.30;;;4.65;;
17283;SDS011;8760;52.248;20.952;2023-07-20T05:34:11;9.52;;;6.18;;
17283;SDS011;8760;52.248;20.952;2023-07-20T05:36:38;6.32;;;5.07;;
17283;SDS011;8760;52.248;20.952;2023-07-20T05:39:05;5.80;;;5.20;;
17283;SDS011;8760;52.248;20.952;2023-07-20T05:41:32;6.07;;;5.10;;
17283;SDS011;8760;52.248;20.952;2023-07-20T05:43:58;6.35;;;5.18;;
17283;SDS011;8760;52.248;20.952;2023-07-20T05:46:25;6.63;;;5.35;;
17283;SDS011;8760;52.248;20.952;2023-07-20T05:48:52;7.90;;;5.72;;
17283;SDS011;8760;52.248;20.952;2023-07-20T05:51:20;6.03;;;5.40;;
17283;SDS011;8760;52.248;20.952;2023-07-20T05:53:47;7.20;;;5.35;;
17283;SDS011;8760;52.248;20.952;2023-07-20T05:56:14;9.95;;;7.57;;
17283;SDS011;8760;52.248;20.952;2023-07-20T05:58:41;6.10;;;5.50;;
17283;SDS011;8760;52.248;20.952;2023-07-20T06:01:08;7.47;;;5.82;;
17283;SDS011;8760;52.248;20.952;2023-07-20T06:03:35;10.50;;;5.85;;
17283;SDS011;8760;52.248;20.952;2023-07-20T06:06:02;6.80;;;5.43;;
17283;SDS011;8760;52.248;20.952;2023-07-20T06:08:32;9.02;;;5.43;;
17283;SDS011;8760;52.248;20.952;2023-07-20T06:10:59;6.00;;;5.40;;
17283;SDS011;8760;52.248;20.952;2023-07-20T06:13:26;7.60;;;5.40;;
17283;SDS011;8760;52.248;20.952;2023-07-20T06:15:53;10.13;;;6.10;;
17283;SDS011;8760;52.248;20.952;2023-07-20T06:18:20;11.48;;;6.28;;
17283;SDS011;8760;52.248;20.952;2023-07-20T06:20:48;7.57;;;5.53;;
17283;SDS011;8760;52.248;20.952;2023-07-20T06:23:16;7.88;;;6.20;;
17283;SDS011;8760;52.248;20.952;2023-07-20T06:25:46;8.75;;;6.43;;
17283;SDS011;8760;52.248;20.952;2023-07-20T06:28:13;8.82;;;6.18;;
17283;SDS011;8760;52.248;20.952;2023-07-20T06:30:40;7.65;;;5.72;;
17283;SDS011;8760;52.248;20.952;2023-07-20T06:33:07;7.90;;;5.82;;
17283;SDS011;8760;52.248;20.952;2023-07-20T06:35:33;12.30;;;10.90;;
17283;SDS011;8760;52.248;20.952;2023-07-20T06:38:00;6.55;;;5.75;;
17283;SDS011;8760;52.248;20.952;2023-07-20T06:40:28;9.90;;;6.20;;
17283;SDS011;8760;52.248;20.952;2023-07-20T06:42:57;11.45;;;5.70;;
17283;SDS011;8760;52.248;20.952;2023-07-20T06:45:24;9.68;;;6.45;;
17283;SDS011;8760;52.248;20.952;2023-07-20T06:47:51;9.38;;;6.22;;
17283;SDS011;8760;52.248;20.952;2023-07-20T06:50:18;8.05;;;5.70;;
17283;SDS011;8760;52.248;20.952;2023-07-20T06:52:45;9.23;;;6.00;;
17283;SDS011;8760;52.248;20.952;2023-07-20T06:55:12;7.82;;;6.25;;
17283;SDS011;8760;52.248;20.952;2023-07-20T06:57:39;7.53;;;5.75;;
17283;SDS011;8760;52.248;20.952;2023-07-20T07:00:08;9.00;;;5.63;;
17283;SDS011;8760;52.248;20.952;2023-07-20T07:02:36;7.18;;;5.35;;
17283;SDS011;8760;52.248;20.952;2023-07-20T07:05:03;10.57;;;5.90;;
17283;SDS011;8760;52.248;20.952;2023-07-20T07:07:31;9.07;;;5.68;;
17283;SDS011;8760;52.248;20.952;2023-07-20T07:09:58;11.00;;;6.43;;
17283;SDS011;8760;52.248;20.952;2023-07-20T07:12:26;7.22;;;5.85;;
17283;SDS011;8760;52.248;20.952;2023-07-20T07:14:52;8.45;;;5.68;;
17283;SDS011;8760;52.248;20.952;2023-07-20T07:17:21;7.35;;;5.28;;
17283;SDS011;8760;52.248;20.952;2023-07-20T07:19:48;7.80;;;5.30;;
17283;SDS011;8760;52.248;20.952;2023-07-20T07:22:14;7.25;;;5.28;;
17283;SDS011;8760;52.248;20.952;2023-07-20T07:24:42;5.70;;;4.82;;
17283;SDS011;8760;52.248;20.952;2023-07-20T07:27:08;7.35;;;5.43;;
17283;SDS011;8760;52.248;20.952;2023-07-20T07:29:36;7.88;;;5.30;;
17283;SDS011;8760;52.248;20.952;2023-07-20T07:32:03;9.85;;;6.18;;
17283;SDS011;8760;52.248;20.952;2023-07-20T07:34:31;11.13;;;5.78;;
17283;SDS011;8760;52.248;20.952;2023-07-20T07:36:59;7.10;;;5.63;;
17283;SDS011;8760;52.248;20.952;2023-07-20T07:39:26;9.50;;;5.57;;
17283;SDS011;8760;52.248;20.952;2023-07-20T07:41:55;7.70;;;5.35;;
17283;SDS011;8760;52.248;20.952;2023-07-20T07:44:22;7.53;;;5.30;;
17283;SDS011;8760;52.248;20.952;2023-07-20T07:46:49;7.55;;;5.40;;
17283;SDS011;8760;52.248;20.952;2023-07-20T07:49:16;8.82;;;4.82;;
17283;SDS011;8760;52.248;20.952;2023-07-20T07:51:45;7.20;;;5.13;;
17283;SDS011;8760;52.248;20.952;2023-07-20T07:54:12;7.53;;;4.85;;
17283;SDS011;8760;52.248;20.952;2023-07-20T07:56:39;6.82;;;4.88;;
17283;SDS011;8760;52.248;20.952;2023-07-20T07:59:07;12.32;;;5.03;;
17283;SDS011;8760;52.248;20.952;2023-07-20T08:01:34;9.02;;;5.65;;
17283;SDS011;8760;52.248;20.952;2023-07-20T08:04:01;7.82;;;5.18;;
17283;SDS011;8760;52.248;20.952;2023-07-20T08:06:28;7.70;;;5.18;;
17283;SDS011;8760;52.248;20.952;2023-07-20T08:08:57;6.88;;;5.25;;
17283;SDS011;8760;52.248;20.952;2023-07-20T08:11:24;8.80;;;5.20;;
17283;SDS011;8760;52.248;20.952;2023-07-20T08:13:51;11.68;;;5.20;;
17283;SDS011;8760;52.248;20.952;2023-07-20T08:16:18;8.88;;;5.78;;
17283;SDS011;8760;52.248;20.952;2023-07-20T08:18:45;8.60;;;5.60;;
17283;SDS011;8760;52.248;20.952;2023-07-20T08:21:12;6.63;;;5.63;;
17283;SDS011;8760;52.248;20.952;2023-07-20T08:23:38;8.18;;;5.75;;
17283;SDS011;8760;52.248;20.952;2023-07-20T08:26:07;6.43;;;4.97;;
17283;SDS011;8760;52.248;20.952;2023-07-20T08:28:34;6.85;;;4.68;;
17283;SDS011;8760;52.248;20.952;2023-07-20T08:31:01;6.57;;;5.40;;
17283;SDS011;8760;52.248;20.952;2023-07-20T08:33:28;5.65;;;5.13;;
17283;SDS011;8760;52.248;20.952;2023-07-20T08:35:58;7.20;;;4.72;;
17283;SDS011;8760;52.248;20.952;2023-07-20T08:38:26;6.45;;;5.10;;
17283;SDS011;8760;52.248;20.952;2023-07-20T08:40:53;9.07;;;5.07;;
17283;SDS011;8760;52.248;20.952;2023-07-20T08:43:22;7.28;;;4.82;;
17283;SDS011;8760;52.248;20.952;2023-07-20T08:45:50;5.70;;;4.32;;
17283;SDS011;8760;52.248;20.952;2023-07-20T08:48:20;6.72;;;4.28;;
17283;SDS011;8760;52.248;20.952;2023-07-20T08:50:47;5.32;;;4.10;;
17283;SDS011;8760;52.248;20.952;2023-07-20T08:53:17;6.70;;;4.47;;
17283;SDS011;8760;52.248;20.952;2023-07-20T08:55:44;7.10;;;4.50;;
17283;SDS011;8760;52.248;20.952;2023-07-20T08:58:12;6.82;;;4.75;;
17283;SDS011;8760;52.248;20.952;2023-07-20T09:00:41;6.03;;;4.30;;
17283;SDS011;8760;52.248;20.952;2023-07-20T09:03:08;4.85;;;4.32;;
17283;SDS011;8760;52.248;20.952;2023-07-20T09:05:36;6.20;;;4.78;;
17283;SDS011;8760;52.248;20.952;2023-07-20T09:08:04;9.80;;;4.97;;
17283;SDS011;8760;52.248;20.952;2023-07-20T09:10:31;6.45;;;4.40;;
17283;SDS011;8760;52.248;20.952;2023-07-20T09:12:57;8.05;;;4.40;;
17283;SDS011;8760;52.248;20.952;2023-07-20T09:15:25;6.43;;;4.97;;
17283;SDS011;8760;52.248;20.952;2023-07-20T09:17:53;6.95;;;4.55;;
17283;SDS011;8760;52.248;20.952;2023-07-20T09:20:20;6.43;;;5.05;;
17283;SDS011;8760;52.248;20.952;2023-07-20T09:22:47;5.20;;;4.53;;
17283;SDS011;8760;52.248;20.952;2023-07-20T09:25:16;5.20;;;3.80;;
17283;SDS011;8760;52.248;20.952;2023-07-20T09:27:44;6.75;;;4.10;;
17283;SDS011;8760;52.248;20.952;2023-07-20T09:30:13;4.85;;;4.00;;
17283;SDS011;8760;52.248;20.952;2023-07-20T09:32:41;4.70;;;3.53;;
17283;SDS011;8760;52.248;20.952;2023-07-20T09:35:14;5.15;;;3.88;;
17283;SDS011;8760;52.248;20.952;2023-07-20T09:37:46;6.78;;;4.53;;
17283;SDS011;8760;52.248;20.952;2023-07-20T09:40:17;7.40;;;4.10;;
17283;SDS011;8760;52.248;20.952;2023-07-20T09:42:45;6.88;;;4.13;;
17283;SDS011;8760;52.248;20.952;2023-07-20T09:45:12;5.07;;;3.67;;
17283;SDS011;8760;52.248;20.952;2023-07-20T09:47:39;5.85;;;4.10;;
17283;SDS011;8760;52.248;20.952;2023-07-20T09:50:07;4.15;;;3.70;;
17283;SDS011;8760;52.248;20.952;2023-07-20T09:52:38;5.13;;;4.38;;
17283;SDS011;8760;52.248;20.952;2023-07-20T09:55:06;3.70;;;3.40;;
17283;SDS011;8760;52.248;20.952;2023-07-20T09:57:34;5.28;;;3.80;;
17283;SDS011;8760;52.248;20.952;2023-07-20T10:00:02;4.45;;;3.67;;
17283;SDS011;8760;52.248;20.952;2023-07-20T10:02:39;4.38;;;3.08;;
17283;SDS011;8760;52.248;20.952;2023-07-20T10:05:08;4.28;;;3.00;;
17283;SDS011;8760;52.248;20.952;2023-07-20T10:07:43;3.50;;;2.92;;
17283;SDS011;8760;52.248;20.952;2023-07-20T10:10:12;3.17;;;2.88;;
17283;SDS011;8760;52.248;20.952;2023-07-20T10:12:42;3.88;;;3.45;;
17283;SDS011;8760;52.248;20.952;2023-07-20T10:15:11;4.25;;;3.70;;
17283;SDS011;8760;52.248;20.952;2023-07-20T10:17:44;4.47;;;3.10;;
17283;SDS011;8760;52.248;20.952;2023-07-20T10:20:19;4.10;;;2.72;;
17283;SDS011;8760;52.248;20.952;2023-07-20T10:22:49;5.03;;;3.35;;
17283;SDS011;8760;52.248;20.952;2023-07-20T10:25:18;4.50;;;3.05;;
17283;SDS011;8760;52.248;20.952;2023-07-20T10:27:48;3.83;;;2.80;;
17283;SDS011;8760;52.248;20.952;2023-07-20T10:30:15;4.20;;;2.83;;
17283;SDS011;8760;52.248;20.952;2023-07-20T10:32:44;4.90;;;2.95;;
17283;SDS011;8760;52.248;20.952;2023-07-20T10:35:14;5.15;;;3.22;;
17283;SDS011;8760;52.248;20.952;2023-07-20T10:37:45;3.38;;;2.42;;
17283;SDS011;8760;52.248;20.952;2023-07-20T10:40:28;4.47;;;3.00;;
17283;SDS011;8760;52.248;20.952;2023-07-20T10:42:57;6.93;;;3.05;;
17283;SDS011;8760;52.248;20.952;2023-07-20T10:48:18;3.17;;;2.63;;
17283;SDS011;8760;52.248;20.952;2023-07-20T10:50:46;4.25;;;3.20;;
17283;SDS011;8760;52.248;20.952;2023-07-20T10:53:39;3.90;;;3.00;;
17283;SDS011;8760;52.248;20.952;2023-07-20T10:56:06;5.57;;;3.42;;
17283;SDS011;8760;52.248;20.952;2023-07-20T10:58:34;4.93;;;3.20;;
17283;SDS011;8760;52.248;20.952;2023-07-20T11:01:01;6.00;;;2.70;;
17283;SDS011;8760;52.248;20.952;2023-07-20T11:03:32;6.05;;;2.80;;
17283;SDS011;8760;52.248;20.952;2023-07-20T11:06:00;3.10;;;2.78;;
17283;SDS011;8760;52.248;20.952;2023-07-20T11:09:04;3.85;;;2.83;;
17283;SDS011;8760;52.248;20.952;2023-07-20T11:11:33;2.60;;;2.40;;
17283;SDS011;8760;52.248;20.952;2023-07-20T11:14:01;3.25;;;2.95;;
17283;SDS011;8760;52.248;20.952;2023-07-20T11:16:36;3.25;;;2.80;;
17283;SDS011;8760;52.248;20.952;2023-07-20T11:19:04;3.83;;;2.85;;
17283;SDS011;8760;52.248;20.952;2023-07-20T11:21:35;2.88;;;2.40;;
17283;SDS011;8760;52.248;20.952;2023-07-20T11:24:06;3.58;;;2.50;;
17283;SDS011;8760;52.248;20.952;2023-07-20T11:26:41;3.55;;;2.63;;
17283;SDS011;8760;52.248;20.952;2023-07-20T11:29:08;2.40;;;2.10;;
17283;SDS011;8760;52.248;20.952;2023-07-20T11:31:36;2.58;;;2.30;;
17283;SDS011;8760;52.248;20.952;2023-07-20T11:34:03;3.05;;;2.30;;
17283;SDS011;8760;52.248;20.952;2023-07-20T11:36:30;2.22;;;2.03;;
17283;SDS011;8760;52.248;20.952;2023-07-20T11:38:58;2.97;;;2.22;;
17283;SDS011;8760;52.248;20.952;2023-07-20T11:41:26;1.95;;;1.85;;
17283;SDS011;8760;52.248;20.952;2023-07-20T11:43:53;2.00;;;1.65;;
17283;SDS011;8760;52.248;20.952;2023-07-20T11:46:21;3.97;;;1.92;;
17283;SDS011;8760;52.248;20.952;2023-07-20T11:48:48;5.50;;;2.20;;
17283;SDS011;8760;52.248;20.952;2023-07-20T11:51:15;2.40;;;2.08;;
17283;SDS011;8760;52.248;20.952;2023-07-20T11:53:42;2.25;;;2.05;;
17283;SDS011;8760;52.248;20.952;2023-07-20T11:56:11;3.25;;;2.03;;
17283;SDS011;8760;52.248;20.952;2023-07-20T11:58:42;2.33;;;1.92;;
17283;SDS011;8760;52.248;20.952;2023-07-20T12:01:11;3.55;;;1.90;;
17283;SDS011;8760;52.248;20.952;2023-07-20T12:03:38;3.25;;;1.83;;
17283;SDS011;8760;52.248;20.952;2023-07-20T12:06:06;4.13;;;2.33;;
17283;SDS011;8760;52.248;20.952;2023-07-20T12:08:33;3.08;;;2.00;;
17283;SDS011;8760;52.248;20.952;2023-07-20T12:11:00;2.65;;;2.30;;
17283;SDS011;8760;52.248;20.952;2023-07-20T12:13:35;1.77;;;1.67;;
17283;SDS011;8760;52.248;20.952;2023-07-20T12:16:08;2.30;;;2.10;;
17283;SDS011;8760;52.248;20.952;2023-07-20T12:18:36;2.90;;;2.13;;
17283;SDS011;8760;52.248;20.952;2023-07-20T12:21:03;3.10;;;2.35;;
17283;SDS011;8760;52.248;20.952;2023-07-20T12:23:34;5.40;;;2.28;;
17283;SDS011;8760;52.248;20.952;2023-07-20T12:26:03;2.80;;;2.20;;
17283;SDS011;8760;52.248;20.952;2023-07-20T12:28:33;2.03;;;1.92;;
17283;SDS011;8760;52.248;20.952;2023-07-20T12:31:01;3.25;;;1.90;;
17283;SDS011;8760;52.248;20.952;2023-07-20T12:33:30;3.38;;;1.90;;
17283;SDS011;8760;52.248;20.952;2023-07-20T12:35:57;2.20;;;1.85;;
17283;SDS011;8760;52.248;20.952;2023-07-20T12:38:24;2.55;;;1.80;;
17283;SDS011;8760;52.248;20.952;2023-07-20T12:40:52;3.03;;;1.60;;
17283;SDS011;8760;52.248;20.952;2023-07-20T12:43:20;2.03;;;1.88;;
17283;SDS011;8760;52.248;20.952;2023-07-20T12:45:47;2.80;;;1.85;;
17283;SDS011;8760;52.248;20.952;2023-07-20T12:48:14;2.60;;;1.73;;
17283;SDS011;8760;52.248;20.952;2023-07-20T12:50:42;3.20;;;1.80;;
17283;SDS011;8760;52.248;20.952;2023-07-20T12:53:09;2.47;;;1.98;;
17283;SDS011;8760;52.248;20.952;2023-07-20T12:55:37;2.40;;;1.88;;
17283;SDS011;8760;52.248;20.952;2023-07-20T12:58:04;4.60;;;2.30;;
17283;SDS011;8760;52.248;20.952;2023-07-20T13:00:31;3.03;;;2.15;;
17283;SDS011;8760;52.248;20.952;2023-07-20T13:02:58;2.35;;;1.80;;
17283;SDS011;8760;52.248;20.952;2023-07-20T13:05:29;3.55;;;2.10;;
17283;SDS011;8760;52.248;20.952;2023-07-20T13:07:58;5.28;;;2.10;;
17283;SDS011;8760;52.248;20.952;2023-07-20T13:10:25;5.40;;;2.25;;
17283;SDS011;8760;52.248;20.952;2023-07-20T13:12:52;2.05;;;1.85;;
17283;SDS011;8760;52.248;20.952;2023-07-20T13:15:19;2.58;;;2.17;;
17283;SDS011;8760;52.248;20.952;2023-07-20T13:17:46;2.30;;;2.10;;
17283;SDS011;8760;52.248;20.952;2023-07-20T13:20:14;2.97;;;2.45;;
17283;SDS011;8760;52.248;20.952;2023-07-20T13:22:41;2.58;;;2.25;;
17283;SDS011;8760;52.248;20.952;2023-07-20T13:25:09;3.33;;;2.63;;
17283;SDS011;8760;52.248;20.952;2023-07-20T13:27:36;2.88;;;2.60;;
17283;SDS011;8760;52.248;20.952;2023-07-20T13:30:03;2.75;;;2.40;;
17283;SDS011;8760;52.248;20.952;2023-07-20T13:32:36;2.33;;;2.08;;
17283;SDS011;8760;52.248;20.952;2023-07-20T13:35:03;4.68;;;2.30;;
17283;SDS011;8760;52.248;20.952;2023-07-20T13:37:31;3.63;;;2.53;;
17283;SDS011;8760;52.248;20.952;2023-07-20T13:39:58;4.50;;;2.30;;
17283;SDS011;8760;52.248;20.952;2023-07-20T13:42:27;3.80;;;2.28;;
17283;SDS011;8760;52.248;20.952;2023-07-20T13:44:54;3.92;;;2.38;;
17283;SDS011;8760;52.248;20.952;2023-07-20T13:47:21;4.63;;;2.80;;
17283;SDS011;8760;52.248;20.952;2023-07-20T13:49:48;3.60;;;2.67;;
17283;SDS011;8760;52.248;20.952;2023-07-20T13:52:15;3.40;;;2.92;;
17283;SDS011;8760;52.248;20.952;2023-07-20T13:54:42;4.35;;;2.88;;
17283;SDS011;8760;52.248;20.952;2023-07-20T13:57:09;3.53;;;2.70;;
17283;SDS011;8760;52.248;20.952;2023-07-20T13:59:37;2.85;;;2.55;;
17283;SDS011;8760;52.248;20.952;2023-07-20T14:02:04;6.28;;;2.90;;
17283;SDS011;8760;52.248;20.952;2023-07-20T14:04:31;3.42;;;2.72;;
17283;SDS011;8760;52.248;20.952;2023-07-20T14:06:58;3.00;;;2.65;;
17283;SDS011;8760;52.248;20.952;2023-07-20T14:09:25;4.10;;;2.70;;
17283;SDS011;8760;52.248;20.952;2023-07-20T14:11:52;3.50;;;2.45;;
17283;SDS011;8760;52.248;20.952;2023-07-20T14:14:19;3.00;;;2.47;;
17283;SDS011;8760;52.248;20.952;2023-07-20T14:16:47;2.85;;;2.22;;
17283;SDS011;8760;52.248;20.952;2023-07-20T14:19:14;5.30;;;2.75;;
17283;SDS011;8760;52.248;20.952;2023-07-20T14:21:41;3.00;;;2.13;;
17283;SDS011;8760;52.248;20.952;2023-07-20T14:24:08;4.88;;;2.00;;
17283;SDS011;8760;52.248;20.952;2023-07-20T14:26:35;3.55;;;2.20;;
17283;SDS011;8760;52.248;20.952;2023-07-20T14:29:02;2.17;;;1.98;;
17283;SDS011;8760;52.248;20.952;2023-07-20T14:31:28;2.75;;;2.08;;
17283;SDS011;8760;52.248;20.952;2023-07-20T14:33:57;4.20;;;2.30;;
17283;SDS011;8760;52.248;20.952;2023-07-20T14:36:24;3.55;;;2.08;;
17283;SDS011;8760;52.248;20.952;2023-07-20T14:38:51;4.90;;;2.10;;
17283;SDS011;8760;52.248;20.952;2023-07-20T14:41:18;3.45;;;1.83;;
17283;SDS011;8760;52.248;20.952;2023-07-20T14:43:45;3.55;;;2.03;;
17283;SDS011;8760;52.248;20.952;2023-07-20T14:46:13;2.53;;;1.77;;
17283;SDS011;8760;52.248;20.952;2023-07-20T14:48:40;1.80;;;1.58;;
17283;SDS011;8760;52.248;20.952;2023-07-20T14:51:08;4.40;;;1.63;;
17283;SDS011;8760;52.248;20.952;2023-07-20T14:53:35;3.80;;;1.75;;
17283;SDS011;8760;52.248;20.952;2023-07-20T14:56:02;1.60;;;1.40;;